createdAt,value
2018-04-19T00:01:58.807Z,16.07
2018-04-19T00:04:26.467Z,13.53
2018-04-19T00:06:54.913Z,12.77
2018-04-19T00:09:22.569Z,15.20
2018-04-19T00:11:50.276Z,16.63
2018-04-19T00:14:17.941Z,16.10
2018-04-19T00:16:45.660Z,14.33
2018-04-19T00:19:13.328Z,15.77
2018-04-19T00:21:41.056Z,16.30
2018-04-19T00:24:08.715Z,15.13
2018-04-19T00:26:36.417Z,16.43
2018-04-19T00:29:04.090Z,15.53
2018-04-19T00:31:32.540Z,15.80
2018-04-19T00:34:00.219Z,16.43
2018-04-19T00:36:27.896Z,16.47
2018-04-19T00:38:56.352Z,15.77
2018-04-19T00:41:24.013Z,15.67
2018-04-19T00:43:52.817Z,16.53
2018-04-19T00:46:20.487Z,16.50
2018-04-19T00:48:48.954Z,15.97
2018-04-19T00:51:16.610Z,16.10
2018-04-19T00:53:44.497Z,16.20
2018-04-19T00:56:12.935Z,16.83
2018-04-19T00:58:41.541Z,17.37
2018-04-19T01:01:09.218Z,15.43
2018-04-19T01:03:37.685Z,17.50
2018-04-19T01:06:05.385Z,17.37
2018-04-19T01:08:33.171Z,16.80
2018-04-19T01:11:00.801Z,17.13
2018-04-19T01:13:28.534Z,14.40
2018-04-19T01:15:56.197Z,16.63
2018-04-19T01:18:23.852Z,14.90
2018-04-19T01:20:52.010Z,16.57
2018-04-19T01:23:19.682Z,13.90
2018-04-19T01:25:47.382Z,15.87
2018-04-19T01:28:15.074Z,16.17
2018-04-19T01:30:42.776Z,19.33
2018-04-19T01:33:10.439Z,14.57
2018-04-19T01:35:49.995Z,15.50
2018-04-19T01:38:18.431Z,10.63
2018-04-19T01:40:46.112Z,11.33
2018-04-19T01:43:13.778Z,10.70
2018-04-19T01:45:41.451Z,9.27
2018-04-19T01:48:09.123Z,9.97
2018-04-19T01:50:37.581Z,11.80
2018-04-19T01:53:05.235Z,11.70
2018-04-19T01:55:32.921Z,12.87
2018-04-19T01:58:01.363Z,11.60
2018-04-19T02:00:29.117Z,13.83
2018-04-19T02:02:56.764Z,14.20
2018-04-19T02:05:24.426Z,15.63
2018-04-19T02:07:52.881Z,14.43
2018-04-19T02:10:22.132Z,14.07
2018-04-19T02:12:49.821Z,14.23
2018-04-19T02:15:18.358Z,12.97
2018-04-19T02:17:46.063Z,13.93
2018-04-19T02:20:13.731Z,15.63
2018-04-19T02:22:42.187Z,14.30
2018-04-19T02:25:09.850Z,14.27
2018-04-19T02:27:37.566Z,13.93
2018-04-19T02:30:05.220Z,15.50
2018-04-19T02:32:32.890Z,16.13
2018-04-19T02:35:00.578Z,17.27
2018-04-19T02:37:28.284Z,16.70
2018-04-19T02:39:55.962Z,12.77
2018-04-19T02:42:24.236Z,15.60
2018-04-19T02:44:52.683Z,16.57
2018-04-19T02:47:20.325Z,14.77
2018-04-19T02:49:48.003Z,16.60
2018-04-19T02:52:15.666Z,17.50
2018-04-19T02:54:43.358Z,17.10
2018-04-19T02:57:11.791Z,18.60
2018-04-19T02:59:39.491Z,15.83
2018-04-19T03:02:07.912Z,17.63
2018-04-19T03:04:35.569Z,18.20
2018-04-19T03:07:03.265Z,18.00
2018-04-19T03:09:30.933Z,15.80
2018-04-19T03:11:58.615Z,14.87
2018-04-19T03:14:27.056Z,15.87
2018-04-19T03:16:54.747Z,16.73
2018-04-19T03:19:23.381Z,16.10
2018-04-19T03:21:51.063Z,18.93
2018-04-19T03:24:18.717Z,17.73
2018-04-19T03:26:46.409Z,16.83
2018-04-19T03:29:14.081Z,17.27
2018-04-19T03:31:42.524Z,18.07
2018-04-19T03:34:10.189Z,18.40
2018-04-19T03:36:37.910Z,17.53
2018-04-19T03:39:05.588Z,17.77
2018-04-19T03:41:33.248Z,18.40
2018-04-19T03:44:00.941Z,19.00
2018-04-19T03:46:28.599Z,19.97
2018-04-19T03:48:56.295Z,16.43
2018-04-19T03:51:24.729Z,18.23
2018-04-19T03:53:53.442Z,19.20
2018-04-19T03:56:22.953Z,19.10
2018-04-19T03:58:50.645Z,17.60
2018-04-19T04:01:18.371Z,19.70
2018-04-19T04:03:46.059Z,16.63
2018-04-19T04:06:14.489Z,16.93
2018-04-19T04:08:42.167Z,19.17
2018-04-19T04:11:09.853Z,19.60
2018-04-19T04:13:37.518Z,18.90
2018-04-19T04:16:05.988Z,18.20
2018-04-19T04:18:45.652Z,16.30
2018-04-19T04:21:18.963Z,17.97
2018-04-19T04:23:53.666Z,16.93
2018-04-19T04:26:23.400Z,17.00
2018-04-19T04:28:51.078Z,17.43
2018-04-19T04:31:18.776Z,15.90
2018-04-19T04:33:46.449Z,15.07
2018-04-19T04:36:14.124Z,15.03
2018-04-19T04:38:42.542Z,16.50
2018-04-19T04:41:10.255Z,16.53
2018-04-19T04:43:37.917Z,16.40
2018-04-19T04:46:05.578Z,16.50
2018-04-19T04:48:34.036Z,15.70
2018-04-19T04:51:01.687Z,17.17
2018-04-19T04:53:29.377Z,15.80
2018-04-19T04:55:57.052Z,15.40
2018-04-19T04:58:25.488Z,14.30
2018-04-19T05:00:54.103Z,16.33
2018-04-19T05:03:22.964Z,16.77
2018-04-19T05:05:50.630Z,15.90
2018-04-19T05:08:18.287Z,15.53
2018-04-19T05:10:45.977Z,15.40
2018-04-19T05:13:13.638Z,15.03
2018-04-19T05:15:41.320Z,16.30
2018-04-19T05:18:08.982Z,16.53
2018-04-19T05:20:36.673Z,15.07
2018-04-19T05:23:04.319Z,16.27
2018-04-19T05:25:32.007Z,15.90
2018-04-19T05:27:59.681Z,15.27
2018-04-19T05:30:27.383Z,17.10
2018-04-19T05:32:55.795Z,16.07
2018-04-19T05:35:24.518Z,18.30
2018-04-19T05:37:52.897Z,17.40
2018-04-19T05:40:20.563Z,17.97
2018-04-19T05:42:48.227Z,19.60
2018-04-19T05:45:15.874Z,17.80
2018-04-19T05:47:43.549Z,18.10
2018-04-19T05:50:11.220Z,16.70
2018-04-19T05:52:38.900Z,18.27
2018-04-19T05:55:06.567Z,18.73
2018-04-19T05:57:34.251Z,17.63
2018-04-19T06:00:01.896Z,19.43
2018-04-19T06:02:29.586Z,20.67
2018-04-19T06:04:57.252Z,20.00
2018-04-19T06:07:24.929Z,22.00
2018-04-19T06:09:52.588Z,18.97
2018-04-19T06:12:20.277Z,19.97
2018-04-19T06:14:48.715Z,18.70
2018-04-19T06:17:16.406Z,19.70
2018-04-19T06:19:44.084Z,21.87
2018-04-19T06:22:12.570Z,21.80
2018-04-19T06:24:41.009Z,20.13
2018-04-19T06:27:08.674Z,20.60
2018-04-19T06:29:36.362Z,24.30
2018-04-19T06:32:04.029Z,23.30
2018-04-19T06:34:32.502Z,23.40
2018-04-19T06:37:00.933Z,22.57
2018-04-19T06:39:28.626Z,23.70
2018-04-19T06:41:56.292Z,25.40
2018-04-19T06:44:23.973Z,24.20
2018-04-19T06:46:53.334Z,24.30
2018-04-19T06:49:21.026Z,27.73
2018-04-19T06:51:48.687Z,30.27
2018-04-19T06:54:16.375Z,28.00
2018-04-19T06:56:44.050Z,28.23
2018-04-19T06:59:11.738Z,28.17
2018-04-19T07:01:39.398Z,30.60
2018-04-19T07:04:07.111Z,31.57
2018-04-19T07:06:35.557Z,32.80
2018-04-19T07:09:03.266Z,32.10
2018-04-19T07:11:30.959Z,31.77
2018-04-19T07:13:58.611Z,29.73
2018-04-19T07:16:26.303Z,28.60
2018-04-19T07:18:53.947Z,26.50
2018-04-19T07:21:22.275Z,26.40
2018-04-19T07:23:50.707Z,24.07
2018-04-19T07:26:18.406Z,22.40
2018-04-19T07:28:46.063Z,25.27
2018-04-19T07:31:13.754Z,22.87
2018-04-19T07:33:41.421Z,21.67
2018-04-19T07:36:09.127Z,22.03
2018-04-19T07:38:36.787Z,21.10
2018-04-19T07:41:04.485Z,18.90
2018-04-19T07:43:32.919Z,18.20
2018-04-19T07:46:00.669Z,19.00
2018-04-19T07:48:28.314Z,16.47
2018-04-19T07:50:55.978Z,12.20
2018-04-19T07:53:23.686Z,12.30
2018-04-19T07:55:52.457Z,13.27
2018-04-19T07:58:20.168Z,12.60
2018-04-19T08:00:47.824Z,12.23
2018-04-19T08:03:16.266Z,12.97
2018-04-19T08:05:43.934Z,11.20
2018-04-19T08:08:11.626Z,11.00
2018-04-19T08:10:40.054Z,12.30
2018-04-19T08:13:07.747Z,13.40
2018-04-19T08:15:35.409Z,12.60
2018-04-19T08:18:03.092Z,13.37
2018-04-19T08:20:31.530Z,14.87
2018-04-19T08:22:59.215Z,14.13
2018-04-19T08:25:26.882Z,18.30
2018-04-19T08:27:55.351Z,14.27
2018-04-19T08:30:24.297Z,14.57
2018-04-19T08:32:51.973Z,14.67
2018-04-19T08:35:19.616Z,14.93
2018-04-19T08:37:47.339Z,14.87
2018-04-19T08:40:15.014Z,15.10
2018-04-19T08:42:43.447Z,14.07
2018-04-19T08:45:11.137Z,16.50
2018-04-19T08:47:38.802Z,13.93
2018-04-19T08:50:06.541Z,14.47
2018-04-19T08:52:34.200Z,14.00
2018-04-19T08:55:01.885Z,14.23
2018-04-19T08:57:29.537Z,14.20
2018-04-19T08:59:57.238Z,14.90
2018-04-19T09:02:24.903Z,15.20
2018-04-19T09:04:52.585Z,15.10
2018-04-19T09:07:20.249Z,14.60
2018-04-19T09:09:47.943Z,13.63
2018-04-19T09:12:15.599Z,14.17
2018-04-19T09:14:43.282Z,15.10
2018-04-19T09:17:10.943Z,15.30
2018-04-19T09:19:38.623Z,13.87
2018-04-19T09:22:07.039Z,16.90
2018-04-19T09:24:34.749Z,13.17
2018-04-19T09:27:03.174Z,13.93
2018-04-19T09:29:30.814Z,14.13
2018-04-19T09:31:58.510Z,15.63
2018-04-19T09:34:26.156Z,13.80
2018-04-19T09:36:53.849Z,14.40
2018-04-19T09:39:22.012Z,14.97
2018-04-19T09:41:49.701Z,15.40
2018-04-19T09:44:17.361Z,14.80
2018-04-19T09:46:45.067Z,15.07
2018-04-19T09:49:12.737Z,13.93
2018-04-19T09:51:40.402Z,14.30
2018-04-19T09:54:08.143Z,14.73
2018-04-19T09:56:35.790Z,14.60
2018-04-19T09:59:12.009Z,12.60
2018-04-19T10:01:45.441Z,14.20
2018-04-19T10:04:13.932Z,13.30
2018-04-19T10:06:41.553Z,14.00
2018-04-19T10:09:09.233Z,14.60
2018-04-19T10:11:36.893Z,13.10
2018-04-19T10:14:04.589Z,12.90
2018-04-19T10:16:32.241Z,12.80
2018-04-19T10:19:00.694Z,19.00
2018-04-19T10:21:28.374Z,26.50
2018-04-19T10:23:56.833Z,18.97
2018-04-19T10:26:24.507Z,14.03
2018-04-19T10:28:53.190Z,10.03
2018-04-19T10:31:20.851Z,10.73
2018-04-19T10:33:48.590Z,10.40
2018-04-19T10:36:16.220Z,10.77
2018-04-19T10:38:43.903Z,12.37
2018-04-19T10:41:11.580Z,13.10
2018-04-19T10:43:39.274Z,11.40
2018-04-19T10:46:07.738Z,11.77
2018-04-19T10:48:35.404Z,10.03
2018-04-19T10:51:03.845Z,8.70
2018-04-19T10:53:31.491Z,9.70
2018-04-19T10:55:59.171Z,10.53
2018-04-19T10:58:26.830Z,10.57
2018-04-19T11:00:54.533Z,11.47
2018-04-19T11:03:24.281Z,9.30
2018-04-19T11:05:53.002Z,8.77
2018-04-19T11:08:20.655Z,10.00
2018-04-19T11:10:48.339Z,9.90
2018-04-19T11:13:15.994Z,9.17
2018-04-19T11:15:43.660Z,9.60
2018-04-19T11:18:11.310Z,8.17
2018-04-19T11:20:38.975Z,7.50
2018-04-19T11:23:06.630Z,7.67
2018-04-19T11:25:35.115Z,6.40
2018-04-19T11:28:02.774Z,7.83
2018-04-19T11:30:30.473Z,10.40
2018-04-19T11:32:58.145Z,8.60
2018-04-19T11:35:25.822Z,8.00
2018-04-19T11:37:54.788Z,7.70
2018-04-19T11:40:24.603Z,7.93
2018-04-19T11:42:53.103Z,7.60
2018-04-19T11:45:20.743Z,7.80
2018-04-19T11:47:49.176Z,6.10
2018-04-19T11:50:16.817Z,7.13
2018-04-19T11:52:44.515Z,8.53
2018-04-19T11:55:12.177Z,7.23
2018-04-19T11:57:39.870Z,7.60
2018-04-19T12:00:07.513Z,6.70
2018-04-19T12:02:35.949Z,8.00
2018-04-19T12:05:03.607Z,6.80
2018-04-19T12:07:31.295Z,7.53
2018-04-19T12:09:58.951Z,6.50
2018-04-19T12:12:26.643Z,6.83
2018-04-19T12:14:55.077Z,6.83
2018-04-19T12:17:23.510Z,6.57
2018-04-19T12:19:52.985Z,6.67
2018-04-19T12:22:20.635Z,5.63
2018-04-19T12:24:48.309Z,6.13
2018-04-19T12:27:15.974Z,7.00
2018-04-19T12:29:43.656Z,5.97
2018-04-19T12:32:12.074Z,6.20
2018-04-19T12:34:39.754Z,5.97
2018-04-19T12:37:07.405Z,5.90
2018-04-19T12:39:35.087Z,6.43
2018-04-19T12:42:02.723Z,6.10
2018-04-19T12:44:30.393Z,5.43
2018-04-19T12:46:58.027Z,5.80
2018-04-19T12:49:25.706Z,4.93
2018-04-19T12:51:54.644Z,5.40
2018-04-19T12:54:24.346Z,4.80
2018-04-19T12:56:52.013Z,5.70
2018-04-19T12:59:19.710Z,5.60
2018-04-19T13:01:47.361Z,5.90
2018-04-19T13:04:15.019Z,6.20
2018-04-19T13:06:42.714Z,5.40
2018-04-19T13:09:10.365Z,5.53
2018-04-19T13:11:38.042Z,6.00
2018-04-19T13:14:05.704Z,5.33
2018-04-19T13:16:33.394Z,4.20
2018-04-19T13:19:01.063Z,5.03
2018-04-19T13:21:28.736Z,4.97
2018-04-19T13:23:57.157Z,4.90
2018-04-19T13:26:24.849Z,5.53
2018-04-19T13:28:52.509Z,5.20
2018-04-19T13:31:20.199Z,5.63
2018-04-19T13:33:48.606Z,5.13
2018-04-19T13:36:16.287Z,5.20
2018-04-19T13:38:43.932Z,4.40
2018-04-19T13:41:11.644Z,5.20
2018-04-19T13:43:39.305Z,4.73
2018-04-19T13:46:06.992Z,5.00
2018-04-19T13:48:34.680Z,5.70
2018-04-19T13:51:02.377Z,6.03
2018-04-19T13:53:30.070Z,5.60
2018-04-19T13:55:58.498Z,5.40
2018-04-19T13:58:26.317Z,6.10
2018-04-19T14:00:54.745Z,4.77
2018-04-19T14:03:23.363Z,5.00
2018-04-19T14:05:51.060Z,4.43
2018-04-19T14:08:19.506Z,4.77
2018-04-19T14:10:47.182Z,5.23
2018-04-19T14:13:15.638Z,5.40
2018-04-19T14:15:43.314Z,5.10
2018-04-19T14:18:10.984Z,5.47
2018-04-19T14:20:38.647Z,5.50
2018-04-19T14:23:07.113Z,5.30
2018-04-19T14:25:34.778Z,5.00
2018-04-19T14:28:02.439Z,5.57
2018-04-19T14:30:30.126Z,5.10
2018-04-19T14:32:58.547Z,4.90
2018-04-19T14:35:26.245Z,5.70
2018-04-19T14:37:54.671Z,4.77
2018-04-19T14:40:23.312Z,5.27
2018-04-19T14:42:52.401Z,5.30
2018-04-19T14:45:20.088Z,5.83
2018-04-19T14:47:48.520Z,5.43
2018-04-19T14:50:16.211Z,4.53
2018-04-19T14:52:44.620Z,5.23
2018-04-19T14:55:12.302Z,5.10
2018-04-19T14:57:39.964Z,5.47
2018-04-19T15:00:07.631Z,5.70
2018-04-19T15:02:35.289Z,4.80
2018-04-19T15:05:02.967Z,5.87
2018-04-19T15:07:30.618Z,4.80
2018-04-19T15:09:58.321Z,4.83
2018-04-19T15:12:25.985Z,4.30
2018-04-19T15:14:54.395Z,4.50
2018-04-19T15:17:22.084Z,5.80
2018-04-19T15:19:49.729Z,5.27
2018-04-19T15:22:17.402Z,4.53
2018-04-19T15:24:45.051Z,4.90
2018-04-19T15:27:12.738Z,3.80
2018-04-19T15:29:40.403Z,4.07
2018-04-19T15:32:08.087Z,4.50
2018-04-19T15:34:35.753Z,4.47
2018-04-19T15:37:04.257Z,3.70
2018-04-19T15:39:31.904Z,5.83
2018-04-19T15:42:00.377Z,4.80
2018-04-19T15:44:28.801Z,4.10
2018-04-19T15:46:56.479Z,4.50
2018-04-19T15:49:24.117Z,4.00
2018-04-19T15:51:53.050Z,4.47
2018-04-19T15:54:20.729Z,4.57
2018-04-19T15:56:49.141Z,4.07
2018-04-19T15:59:16.810Z,4.33
2018-04-19T16:01:44.457Z,4.40
2018-04-19T16:04:12.128Z,4.17
2018-04-19T16:06:39.787Z,4.60
2018-04-19T16:09:07.466Z,4.10
2018-04-19T16:11:35.122Z,3.77
2018-04-19T16:14:02.798Z,4.10
2018-04-19T16:16:30.446Z,3.67
2018-04-19T16:18:58.185Z,3.60
2018-04-19T16:21:26.595Z,4.10
2018-04-19T16:23:54.322Z,3.80
2018-04-19T16:26:22.973Z,3.77
2018-04-19T16:28:52.091Z,3.67
2018-04-19T16:31:19.723Z,3.80
2018-04-19T16:33:47.417Z,3.70
2018-04-19T16:36:15.843Z,3.77
2018-04-19T16:38:43.606Z,4.27
2018-04-19T16:41:11.211Z,3.97
2018-04-19T16:43:39.633Z,3.77
2018-04-19T16:46:07.316Z,3.73
2018-04-19T16:48:34.975Z,4.47
2018-04-19T16:51:02.688Z,4.03
2018-04-19T16:53:31.120Z,4.27
2018-04-19T16:55:58.805Z,4.37
2018-04-19T16:58:26.470Z,4.40
2018-04-19T17:00:54.149Z,4.20
2018-04-19T17:03:22.565Z,4.40
2018-04-19T17:05:50.259Z,5.00
2018-04-19T17:08:17.925Z,4.30
2018-04-19T17:10:45.606Z,4.20
2018-04-19T17:13:14.030Z,4.93
2018-04-19T17:15:41.705Z,5.03
2018-04-19T17:18:09.359Z,4.90
2018-04-19T17:20:37.011Z,5.53
2018-04-19T17:23:04.694Z,5.00
2018-04-19T17:25:32.363Z,5.20
2018-04-19T17:28:00.072Z,5.60
2018-04-19T17:30:27.746Z,6.60
2018-04-19T17:32:55.422Z,6.87
2018-04-19T17:35:24.439Z,6.20
2018-04-19T17:37:52.983Z,7.30
2018-04-19T17:40:20.641Z,7.13
2018-04-19T17:42:48.374Z,7.27
2018-04-19T17:45:16.799Z,7.10
2018-04-19T17:47:44.493Z,6.37
2018-04-19T17:50:12.178Z,6.80
2018-04-19T17:52:39.817Z,6.90
2018-04-19T17:55:07.421Z,7.70
2018-04-19T17:57:35.046Z,6.73
2018-04-19T18:00:02.650Z,6.30
2018-04-19T18:02:31.064Z,5.27
2018-04-19T18:04:58.681Z,7.23
2018-04-19T18:07:26.312Z,5.27
2018-04-19T18:09:53.915Z,5.20
2018-04-19T18:12:22.333Z,6.40
2018-04-19T18:14:49.947Z,5.90
2018-04-19T18:17:17.670Z,5.60
2018-04-19T18:19:45.395Z,5.30
2018-04-19T18:22:13.790Z,5.80
2018-04-19T18:24:41.415Z,5.90
2018-04-19T18:27:09.032Z,6.50
2018-04-19T18:29:36.676Z,5.60
2018-04-19T18:32:04.276Z,4.80
2018-04-19T18:34:31.914Z,5.60
2018-04-19T18:36:59.537Z,5.60
2018-04-19T18:39:27.181Z,6.07
2018-04-19T18:41:55.553Z,5.80
2018-04-19T18:44:23.197Z,5.90
2018-04-19T18:46:50.799Z,6.30
2018-04-19T18:49:18.442Z,5.60
2018-04-19T18:51:46.825Z,6.40
2018-04-19T18:54:15.236Z,5.07
2018-04-19T18:56:42.845Z,5.30
2018-04-19T18:59:10.490Z,6.60
2018-04-19T19:01:38.132Z,4.90
2018-04-19T19:04:05.804Z,6.23
2018-04-19T19:06:33.403Z,5.00
2018-04-19T19:09:01.835Z,5.13
2018-04-19T19:11:30.231Z,5.83
2018-04-19T19:13:57.859Z,7.43
2018-04-19T19:16:25.467Z,5.60
2018-04-19T19:19:05.036Z,5.37
2018-04-19T19:21:32.636Z,6.90
2018-04-19T19:24:00.326Z,6.10
2018-04-19T19:26:27.915Z,6.10
2018-04-19T19:28:56.291Z,6.00
2018-04-19T19:31:24.699Z,7.73
2018-04-19T19:33:52.327Z,7.77
2018-04-19T19:36:20.746Z,7.47
2018-04-19T19:38:48.366Z,6.57
2018-04-19T19:41:16.749Z,6.70
2018-04-19T19:43:45.130Z,6.43
2018-04-19T19:46:12.763Z,6.10
2018-04-19T19:48:40.822Z,6.57
2018-04-19T19:51:08.500Z,6.20
2018-04-19T19:53:36.906Z,6.53
2018-04-19T19:56:04.553Z,5.90
2018-04-19T19:58:32.931Z,7.20
2018-04-19T20:01:01.327Z,6.37
2018-04-19T20:03:28.917Z,6.00
2018-04-19T20:05:56.556Z,5.73
2018-04-19T20:08:24.177Z,6.03
2018-04-19T20:10:51.807Z,6.37
2018-04-19T20:13:19.420Z,6.40
2018-04-19T20:15:48.196Z,6.90
2018-04-19T20:18:17.572Z,7.67
2018-04-19T20:20:45.215Z,7.47
2018-04-19T20:23:12.827Z,7.33
2018-04-19T20:25:41.232Z,7.77
2018-04-19T20:28:08.864Z,7.70
2018-04-19T20:30:37.252Z,7.57
2018-04-19T20:33:04.892Z,7.27
2018-04-19T20:35:33.264Z,7.67
2018-04-19T20:38:01.684Z,6.90
2018-04-19T20:40:29.285Z,6.90
2018-04-19T20:42:56.934Z,7.60
2018-04-19T20:45:24.554Z,7.73
2018-04-19T20:47:52.193Z,6.73
2018-04-19T20:50:20.570Z,7.20
2018-04-19T20:52:49.000Z,8.33
2018-04-19T20:55:17.532Z,9.50
2018-04-19T20:57:47.065Z,7.30
2018-04-19T21:00:14.688Z,7.40
2018-04-19T21:02:42.299Z,7.23
2018-04-19T21:05:09.947Z,7.17
2018-04-19T21:07:37.558Z,7.47
2018-04-19T21:10:05.228Z,8.00
2018-04-19T21:12:32.861Z,8.90
2018-04-19T21:15:00.494Z,7.70
2018-04-19T21:17:28.115Z,8.40
2018-04-19T21:19:56.525Z,8.33
2018-04-19T21:22:24.138Z,9.20
2018-04-19T21:24:51.761Z,9.17
2018-04-19T21:27:19.367Z,8.67
2018-04-19T21:29:47.602Z,9.20
2018-04-19T21:32:15.212Z,8.60
2018-04-19T21:34:42.863Z,9.13
2018-04-19T21:37:10.459Z,8.60
2018-04-19T21:39:38.069Z,8.30
2018-04-19T21:42:05.737Z,8.67
2018-04-19T21:44:33.368Z,8.13
2018-04-19T21:47:00.999Z,8.63
2018-04-19T21:49:28.603Z,9.00
2018-04-19T21:51:56.224Z,11.07
2018-04-19T21:54:23.825Z,8.80
2018-04-19T21:56:52.243Z,8.97
2018-04-19T21:59:20.637Z,9.37
2018-04-19T22:01:48.325Z,9.30
2018-04-19T22:04:16.888Z,9.37
2018-04-19T22:06:44.527Z,9.10
2018-04-19T22:09:12.894Z,9.33
2018-04-19T22:11:40.549Z,10.03
2018-04-19T22:14:08.949Z,9.87
2018-04-19T22:16:37.318Z,9.60
2018-04-19T22:19:05.731Z,8.20
2018-04-19T22:21:33.373Z,10.00
2018-04-19T22:24:00.999Z,8.80
2018-04-19T22:26:28.601Z,10.13
2018-04-19T22:28:56.220Z,9.30
2018-04-19T22:31:23.877Z,8.47
2018-04-19T22:33:51.498Z,8.17
2018-04-19T22:36:19.120Z,9.53
2018-04-19T22:38:48.774Z,7.00
2018-04-19T22:41:17.253Z,7.90
2018-04-19T22:43:44.877Z,7.47
2018-04-19T22:46:13.239Z,7.83
2018-04-19T22:48:41.696Z,7.00
2018-04-19T22:51:09.296Z,9.10
2018-04-19T22:53:37.692Z,9.80
2018-04-19T22:56:05.305Z,8.33
2018-04-19T22:58:32.958Z,8.07
2018-04-19T23:01:00.572Z,8.40
2018-04-19T23:03:28.187Z,8.40
2018-04-19T23:05:55.827Z,7.83
2018-04-19T23:08:23.447Z,7.60
2018-04-19T23:10:51.076Z,7.50
2018-04-19T23:13:18.681Z,9.30
2018-04-19T23:15:47.796Z,8.67
2018-04-19T23:18:15.420Z,8.20
2018-04-19T23:20:44.757Z,9.00
2018-04-19T23:23:12.373Z,9.90
2018-04-19T23:25:40.771Z,8.00
2018-04-19T23:28:08.407Z,9.57
2018-04-19T23:30:36.859Z,10.57
2018-04-19T23:33:04.456Z,9.73
2018-04-19T23:35:32.895Z,9.30
2018-04-19T23:38:00.512Z,9.67
2018-04-19T23:40:28.122Z,9.23
2018-04-19T23:42:55.768Z,9.30
2018-04-19T23:45:23.412Z,10.80
2018-04-19T23:47:51.079Z,9.20
2018-04-19T23:50:18.716Z,9.63
2018-04-19T23:52:47.717Z,9.77
2018-04-19T23:55:15.348Z,10.10
2018-04-19T23:57:44.756Z,9.60
